createdAt,value
2019-03-12T00:00:54.395Z,4.50
2019-03-12T00:03:42.664Z,4.60
2019-03-12T00:06:23.132Z,4.70
2019-03-12T00:09:04.241Z,4.70
2019-03-12T00:11:45.598Z,4.80
2019-03-12T00:14:25.968Z,4.70
2019-03-12T00:17:07.009Z,4.60
2019-03-12T00:19:47.769Z,4.70
2019-03-12T00:22:28.488Z,4.70
2019-03-12T00:25:09.713Z,4.70
2019-03-12T00:27:50.574Z,4.60
2019-03-12T00:30:31.439Z,4.40
2019-03-12T00:33:12.288Z,4.20
2019-03-12T00:35:53.031Z,4.20
2019-03-12T00:38:33.972Z,4.10
2019-03-12T00:41:14.605Z,4.10
2019-03-12T00:43:55.497Z,4.20
2019-03-12T00:46:36.401Z,4.20
2019-03-12T00:49:17.369Z,4.30
2019-03-12T00:51:58.008Z,4.40
2019-03-12T00:54:39.305Z,4.50
2019-03-12T00:57:19.873Z,4.40
2019-03-12T01:00:00.525Z,4.40
2019-03-12T01:02:41.820Z,4.40
2019-03-12T01:05:22.512Z,4.50
2019-03-12T01:08:03.313Z,4.40
2019-03-12T01:10:44.101Z,4.40
2019-03-12T01:13:24.833Z,4.40
2019-03-12T01:16:05.780Z,4.20
2019-03-12T01:18:46.201Z,4.10
2019-03-12T01:21:27.212Z,4.00
2019-03-12T01:24:08.368Z,3.90
2019-03-12T01:26:49.084Z,3.80
2019-03-12T01:29:29.853Z,3.80
2019-03-12T01:32:10.784Z,4.00
2019-03-12T01:34:51.762Z,4.20
2019-03-12T01:37:32.846Z,4.40
2019-03-12T01:40:13.498Z,4.50
2019-03-12T01:42:54.609Z,4.60
2019-03-12T01:45:35.148Z,4.60
2019-03-12T01:48:16.111Z,4.60
2019-03-12T01:50:56.768Z,4.50
2019-03-12T01:53:37.583Z,4.40
2019-03-12T01:56:18.589Z,4.30
2019-03-12T01:58:59.368Z,4.30
2019-03-12T02:01:40.057Z,4.20
2019-03-12T02:04:21.402Z,4.10
2019-03-12T02:06:50.195Z,4.10
2019-03-12T02:09:57.720Z,4.20
2019-03-12T02:12:45.708Z,4.20
2019-03-12T02:15:33.768Z,4.20
2019-03-12T02:18:21.837Z,4.20
2019-03-12T02:21:09.849Z,4.10
2019-03-12T02:23:57.956Z,4.00
2019-03-12T02:29:53.621Z,3.80
2019-03-12T02:32:44.407Z,3.70
2019-03-12T02:35:31.413Z,3.50
2019-03-12T02:38:19.420Z,3.40
2019-03-12T02:41:07.471Z,3.40
2019-03-12T02:43:36.288Z,3.30
2019-03-12T02:46:24.531Z,3.40
2019-03-12T02:49:12.622Z,3.50
2019-03-12T02:52:00.587Z,3.60
2019-03-12T02:54:48.583Z,3.60
2019-03-12T02:57:36.583Z,3.60
2019-03-12T03:00:24.986Z,3.60
2019-03-12T03:03:12.958Z,3.50
2019-03-12T03:06:20.478Z,3.30
2019-03-12T03:08:49.758Z,3.20
2019-03-12T03:11:37.710Z,3.00
2019-03-12T03:14:44.914Z,3.00
2019-03-12T03:17:33.225Z,2.90
2019-03-12T03:20:40.425Z,3.00
2019-03-12T03:23:28.431Z,3.00
2019-03-12T03:26:16.661Z,3.00
2019-03-12T03:29:04.697Z,2.90
2019-03-12T03:31:52.674Z,2.80
2019-03-12T03:34:40.658Z,2.70
2019-03-12T03:37:28.634Z,2.60
2019-03-12T03:40:17.661Z,2.50
2019-03-12T03:46:13.233Z,2.40
2019-03-12T03:49:01.570Z,2.30
2019-03-12T03:51:49.833Z,2.30
2019-03-12T03:54:37.838Z,2.20
2019-03-12T03:57:25.831Z,2.20
2019-03-12T04:00:15.459Z,2.20
2019-03-12T04:03:05.684Z,2.20
2019-03-12T04:05:53.725Z,2.10
2019-03-12T04:08:34.598Z,2.10
2019-03-12T04:11:15.115Z,2.00
2019-03-12T04:13:56.185Z,2.00
2019-03-12T04:16:36.925Z,1.90
2019-03-12T04:19:05.673Z,1.90
2019-03-12T04:21:34.437Z,2.00
2019-03-12T04:24:22.433Z,2.10
2019-03-12T04:30:17.629Z,2.10
2019-03-12T04:33:05.677Z,2.10
2019-03-12T04:35:53.658Z,2.00
2019-03-12T04:38:41.633Z,2.00
2019-03-12T04:41:29.999Z,1.90
2019-03-12T04:44:17.981Z,1.80
2019-03-12T04:47:06.297Z,1.80
2019-03-12T04:49:54.576Z,1.70
2019-03-12T04:52:42.979Z,1.60
2019-03-12T04:55:31.272Z,1.70
2019-03-12T04:58:19.276Z,1.70
2019-03-12T05:01:09.642Z,1.70
2019-03-12T05:03:38.596Z,1.70
2019-03-12T05:06:20.156Z,1.60
2019-03-12T05:09:01.454Z,1.60
2019-03-12T05:11:42.237Z,1.60
2019-03-12T05:14:23.419Z,1.60
2019-03-12T05:17:04.240Z,1.60
2019-03-12T05:19:45.192Z,1.70
2019-03-12T05:22:26.082Z,1.70
2019-03-12T05:25:06.789Z,1.80
2019-03-12T05:27:47.448Z,1.80
2019-03-12T05:30:28.304Z,1.80
2019-03-12T05:33:08.862Z,1.80
2019-03-12T05:35:49.676Z,1.80
2019-03-12T05:38:30.233Z,1.80
2019-03-12T05:41:12.318Z,1.70
2019-03-12T05:43:53.592Z,1.60
2019-03-12T05:46:34.339Z,1.50
2019-03-12T05:49:15.148Z,1.50
2019-03-12T05:54:38.700Z,1.60
2019-03-12T05:57:19.354Z,1.60
2019-03-12T06:00:00.353Z,1.60
2019-03-12T06:02:40.936Z,1.50
2019-03-12T06:05:09.751Z,1.60
2019-03-12T06:07:38.608Z,1.70
2019-03-12T06:13:14.415Z,1.80
2019-03-12T06:16:02.373Z,1.90
2019-03-12T06:18:50.539Z,1.90
2019-03-12T06:21:38.552Z,2.00
2019-03-12T06:24:26.517Z,2.00
2019-03-12T06:27:14.707Z,2.00
2019-03-12T06:30:02.813Z,2.00
2019-03-12T06:32:54.390Z,2.00
2019-03-12T06:36:01.434Z,2.10
2019-03-12T06:39:08.495Z,2.00
2019-03-12T06:45:08.195Z,2.00
2019-03-12T06:48:15.374Z,1.90
2019-03-12T06:51:09.553Z,1.80
2019-03-12T06:54:16.605Z,1.80
2019-03-12T06:57:23.641Z,1.80
2019-03-12T07:00:11.720Z,1.90
2019-03-12T07:06:25.460Z,2.00
2019-03-12T07:09:32.603Z,2.00
2019-03-12T07:12:39.710Z,2.10
2019-03-12T07:15:46.787Z,2.20
2019-03-12T07:18:53.853Z,2.30
2019-03-12T07:22:00.915Z,2.50
2019-03-12T07:25:08.062Z,2.70
2019-03-12T07:28:15.122Z,2.90
2019-03-12T07:31:22.594Z,3.10
2019-03-12T07:34:19.515Z,3.30
2019-03-12T07:37:26.935Z,3.50
2019-03-12T07:40:34.002Z,3.60
2019-03-12T07:43:41.049Z,3.80
2019-03-12T07:46:48.343Z,4.00
2019-03-12T07:49:44.352Z,4.10
2019-03-12T07:52:51.388Z,4.10
2019-03-12T07:55:58.644Z,4.40
2019-03-12T07:59:08.866Z,4.60
2019-03-12T08:02:14.722Z,4.70
2019-03-12T08:05:21.761Z,4.90
2019-03-12T08:08:10.937Z,5.10
2019-03-12T08:10:56.703Z,5.90
2019-03-12T08:13:56.684Z,8.80
2019-03-12T08:16:55.031Z,11.90
2019-03-12T08:19:54.964Z,14.50
2019-03-12T08:22:54.694Z,15.30
2019-03-12T08:25:54.897Z,13.50
2019-03-12T08:28:55.240Z,11.60
2019-03-12T08:31:54.857Z,12.80
2019-03-12T08:34:55.092Z,15.30
2019-03-12T08:37:55.232Z,16.50
2019-03-12T08:40:55.428Z,17.70
2019-03-12T08:43:47.752Z,17.00
2019-03-12T08:46:50.744Z,17.00
2019-03-12T08:49:50.586Z,16.90
2019-03-12T08:52:50.241Z,17.70
2019-03-12T08:55:52.640Z,18.20
2019-03-12T08:58:52.495Z,18.20
2019-03-12T09:01:47.575Z,17.10
2019-03-12T09:04:47.256Z,16.90
2019-03-12T09:07:46.874Z,17.40
2019-03-12T09:10:42.671Z,17.70
2019-03-12T09:13:45.597Z,18.20
2019-03-12T09:16:51.417Z,17.50
2019-03-12T09:19:50.862Z,18.60
2019-03-12T09:22:50.454Z,18.80
2019-03-12T09:25:49.885Z,18.70
2019-03-12T09:28:49.245Z,17.60
2019-03-12T09:31:36.402Z,16.40
2019-03-12T09:34:29.575Z,15.40
2019-03-12T09:37:29.753Z,15.60
2019-03-12T09:40:29.315Z,16.20
2019-03-12T09:43:28.949Z,16.40
2019-03-12T09:46:28.650Z,16.70
2019-03-12T09:49:17.689Z,17.00
2019-03-12T09:52:05.756Z,17.30
2019-03-12T09:54:53.581Z,17.20
2019-03-12T09:58:00.636Z,17.40
2019-03-12T10:00:55.366Z,17.80
2019-03-12T10:04:02.630Z,17.90
2019-03-12T10:06:52.739Z,16.60
2019-03-12T10:09:52.842Z,15.80
2019-03-12T10:12:45.423Z,15.80
2019-03-12T10:15:36.103Z,15.80
2019-03-12T10:18:36.121Z,16.30
2019-03-12T10:21:35.637Z,16.10
2019-03-12T10:24:22.832Z,15.40
2019-03-12T10:27:10.544Z,14.10
2019-03-12T10:30:00.422Z,13.00
2019-03-12T10:32:59.933Z,12.30
2019-03-12T10:36:00.353Z,11.70
2019-03-12T10:38:59.920Z,11.20
2019-03-12T10:41:59.355Z,11.30
2019-03-12T10:44:46.169Z,11.10
2019-03-12T10:47:26.844Z,11.00
2019-03-12T10:50:07.964Z,11.10
2019-03-12T10:52:49.047Z,11.50
2019-03-12T10:55:29.381Z,11.60
2019-03-12T10:58:10.396Z,11.50
2019-03-12T11:00:50.695Z,11.50
2019-03-12T11:03:31.459Z,12.00
2019-03-12T11:06:12.212Z,12.20
2019-03-12T11:08:52.921Z,12.00
2019-03-12T11:11:33.808Z,11.60
2019-03-12T11:14:14.729Z,11.40
2019-03-12T11:16:53.953Z,11.50
2019-03-12T11:19:41.941Z,11.60
2019-03-12T11:22:29.912Z,11.40
2019-03-12T11:25:27.287Z,11.00
2019-03-12T11:28:07.889Z,11.10
2019-03-12T11:30:55.869Z,11.10
2019-03-12T11:33:43.943Z,10.90
2019-03-12T11:36:31.927Z,10.80
2019-03-12T11:39:19.926Z,10.70
2019-03-12T11:42:07.884Z,10.50
2019-03-12T11:44:55.925Z,10.50
2019-03-12T11:47:44.160Z,10.70
2019-03-12T11:50:32.141Z,10.70
2019-03-12T11:53:20.140Z,10.80
2019-03-12T11:56:08.121Z,10.60
2019-03-12T11:58:56.335Z,10.50
2019-03-12T12:01:45.856Z,10.50
2019-03-12T12:04:33.815Z,10.40
2019-03-12T12:07:14.560Z,10.50
2019-03-12T12:09:55.685Z,10.60
2019-03-12T12:12:36.344Z,10.70
2019-03-12T12:15:17.189Z,10.70
2019-03-12T12:17:57.848Z,10.50
2019-03-12T12:20:38.646Z,10.60
2019-03-12T12:23:19.705Z,10.60
2019-03-12T12:26:00.653Z,10.60
2019-03-12T12:28:41.380Z,10.50
2019-03-12T12:31:21.928Z,10.50
2019-03-12T12:34:02.897Z,10.40
2019-03-12T12:36:43.620Z,10.20
2019-03-12T12:39:24.430Z,10.20
2019-03-12T12:42:05.339Z,10.10
2019-03-12T12:44:46.358Z,10.00
2019-03-12T12:47:27.400Z,10.00
2019-03-12T12:50:08.332Z,10.00
2019-03-12T12:52:49.180Z,9.90
2019-03-12T12:55:29.771Z,9.80
2019-03-12T12:58:10.320Z,9.90
2019-03-12T13:00:51.151Z,10.00
2019-03-12T13:03:32.141Z,10.20
2019-03-12T13:06:13.935Z,10.30
2019-03-12T13:08:54.935Z,10.50
2019-03-12T13:11:35.604Z,10.60
2019-03-12T13:14:16.176Z,10.70
2019-03-12T13:16:56.893Z,10.90
2019-03-12T13:19:37.537Z,11.00
2019-03-12T13:22:18.064Z,10.90
2019-03-12T13:24:58.849Z,10.70
2019-03-12T13:27:42.508Z,10.60
2019-03-12T13:30:22.161Z,10.50
2019-03-12T13:33:03.117Z,10.50
2019-03-12T13:35:44.203Z,10.50
2019-03-12T13:38:25.129Z,10.70
2019-03-12T13:41:06.176Z,10.70
2019-03-12T13:43:46.571Z,10.70
2019-03-12T13:46:27.274Z,10.70
2019-03-12T13:49:07.751Z,10.60
2019-03-12T13:51:49.063Z,10.50
2019-03-12T13:54:29.989Z,10.60
2019-03-12T13:57:10.409Z,10.60
2019-03-12T13:59:50.944Z,10.50
2019-03-12T14:02:31.477Z,10.40
2019-03-12T14:05:11.743Z,10.50
2019-03-12T14:07:52.598Z,10.60
2019-03-12T14:10:33.184Z,10.70
2019-03-12T14:13:13.786Z,10.80
2019-03-12T14:15:54.868Z,10.80
2019-03-12T14:18:36.006Z,10.80
2019-03-12T14:21:16.724Z,10.70
2019-03-12T14:23:57.569Z,10.60
2019-03-12T14:26:38.429Z,10.70
2019-03-12T14:29:19.437Z,10.80
2019-03-12T14:31:59.908Z,10.80
2019-03-12T14:34:40.788Z,10.60
2019-03-12T14:37:21.238Z,10.60
2019-03-12T14:40:02.000Z,10.50
2019-03-12T14:42:42.924Z,10.50
2019-03-12T14:45:23.856Z,10.40
2019-03-12T14:48:04.858Z,10.50
2019-03-12T14:50:45.276Z,10.60
2019-03-12T14:53:26.441Z,10.70
2019-03-12T14:56:07.060Z,10.60
2019-03-12T14:58:51.036Z,10.50
2019-03-12T15:01:30.756Z,10.30
2019-03-12T15:04:14.767Z,10.30
2019-03-12T15:06:53.645Z,10.20
2019-03-12T15:09:34.331Z,10.20
2019-03-12T15:12:16.017Z,10.20
2019-03-12T15:14:44.970Z,10.10
2019-03-12T15:17:13.742Z,10.10
2019-03-12T15:20:01.956Z,10.20
2019-03-12T15:22:49.924Z,10.20
2019-03-12T15:25:38.125Z,10.20
2019-03-12T15:28:26.096Z,10.10
2019-03-12T15:31:14.059Z,10.00
2019-03-12T15:34:02.032Z,9.90
2019-03-12T15:36:49.980Z,9.80
2019-03-12T15:39:37.945Z,9.80
2019-03-12T15:42:25.904Z,9.70
2019-03-12T15:45:14.308Z,9.70
2019-03-12T15:48:02.280Z,9.70
2019-03-12T15:50:50.531Z,9.60
2019-03-12T15:53:38.503Z,9.60
2019-03-12T15:56:49.545Z,9.60
2019-03-12T15:59:56.777Z,9.50
2019-03-12T16:02:25.558Z,9.50
2019-03-12T16:05:13.708Z,9.50
2019-03-12T16:07:54.865Z,9.50
2019-03-12T16:10:35.157Z,9.50
2019-03-12T16:13:15.978Z,9.50
2019-03-12T16:15:56.853Z,9.50
2019-03-12T16:18:37.328Z,9.50
2019-03-12T16:21:17.938Z,9.50
2019-03-12T16:23:58.780Z,9.50
2019-03-12T16:26:39.514Z,9.40
2019-03-12T16:29:20.397Z,9.40
2019-03-12T16:32:01.178Z,9.40
2019-03-12T16:34:41.964Z,9.50
2019-03-12T16:37:22.622Z,9.40
2019-03-12T16:40:03.056Z,9.40
2019-03-12T16:42:43.721Z,9.40
2019-03-12T16:45:24.208Z,9.30
2019-03-12T16:48:04.870Z,9.30
2019-03-12T16:50:45.509Z,9.30
2019-03-12T16:53:32.944Z,9.30
2019-03-12T16:56:21.700Z,9.20
2019-03-12T16:59:02.860Z,9.20
2019-03-12T17:01:31.620Z,9.20
2019-03-12T17:07:06.407Z,9.30
2019-03-12T17:09:47.745Z,9.20
2019-03-12T17:12:28.387Z,9.20
2019-03-12T17:15:09.036Z,9.20
2019-03-12T17:17:49.483Z,9.10
2019-03-12T17:20:30.286Z,9.10
2019-03-12T17:23:10.896Z,9.10
2019-03-12T17:25:51.469Z,9.00
2019-03-12T17:28:32.059Z,9.00
2019-03-12T17:31:12.564Z,9.10
2019-03-12T17:33:53.836Z,9.10
2019-03-12T17:36:34.983Z,9.20
2019-03-12T17:39:15.925Z,9.10
2019-03-12T17:41:57.289Z,9.10
2019-03-12T17:44:37.619Z,9.00
2019-03-12T17:47:18.437Z,9.00
2019-03-12T17:49:58.900Z,8.90
2019-03-12T17:52:39.522Z,9.00
2019-03-12T17:55:20.034Z,9.00
2019-03-12T17:58:00.729Z,9.00
2019-03-12T18:00:43.157Z,9.00
2019-03-12T18:03:23.622Z,9.00
2019-03-12T18:06:04.520Z,9.00
2019-03-12T18:08:45.388Z,9.00
2019-03-12T18:11:26.874Z,9.00
2019-03-12T18:14:07.584Z,9.00
2019-03-12T18:16:48.035Z,9.00
2019-03-12T18:19:28.527Z,8.90
2019-03-12T18:22:09.339Z,9.00
2019-03-12T18:24:50.151Z,9.00
2019-03-12T18:27:31.268Z,9.10
2019-03-12T18:30:11.647Z,9.10
2019-03-12T18:32:52.252Z,9.10
2019-03-12T18:35:32.698Z,9.10
2019-03-12T18:38:13.679Z,9.10
2019-03-12T18:40:54.193Z,9.10
2019-03-12T18:43:35.097Z,9.10
2019-03-12T18:46:15.933Z,9.10
2019-03-12T18:48:57.432Z,9.10
2019-03-12T18:51:37.999Z,9.10
2019-03-12T18:54:18.561Z,9.10
2019-03-12T18:56:59.508Z,9.20
2019-03-12T18:59:39.914Z,9.30
2019-03-12T19:02:21.812Z,9.30
2019-03-12T19:05:02.238Z,9.40
2019-03-12T19:13:42.361Z,9.50
2019-03-12T19:16:23.256Z,9.40
2019-03-12T19:19:04.061Z,9.40
2019-03-12T19:21:44.797Z,9.40
2019-03-12T19:24:25.658Z,9.40
2019-03-12T19:27:06.582Z,9.50
2019-03-12T19:29:46.847Z,9.50
2019-03-12T19:32:34.377Z,9.50
2019-03-12T19:35:15.483Z,9.50
2019-03-12T19:37:56.226Z,9.60
2019-03-12T19:40:37.487Z,9.60
2019-03-12T19:43:18.042Z,9.60
2019-03-12T19:45:58.768Z,9.60
2019-03-12T19:48:38.068Z,9.50
2019-03-12T19:51:36.989Z,9.50
2019-03-12T19:54:25.470Z,9.50
2019-03-12T19:57:13.543Z,9.60
2019-03-12T20:00:01.530Z,9.50
2019-03-12T20:02:49.764Z,9.40
2019-03-12T20:05:37.788Z,9.40
2019-03-12T20:08:18.245Z,9.30
2019-03-12T20:10:58.889Z,9.30
2019-03-12T20:13:39.440Z,9.40
2019-03-12T20:16:20.115Z,9.40
2019-03-12T20:19:00.776Z,9.30
2019-03-12T20:21:41.944Z,9.40
2019-03-12T20:24:22.504Z,9.40
2019-03-12T20:27:03.551Z,9.40
2019-03-12T20:29:46.441Z,9.40
2019-03-12T20:32:26.876Z,9.30
2019-03-12T20:35:08.334Z,9.30
2019-03-12T20:37:49.381Z,9.30
2019-03-12T20:40:30.023Z,9.40
2019-03-12T20:43:10.935Z,9.50
2019-03-12T20:45:51.718Z,9.50
2019-03-12T20:48:32.587Z,9.50
2019-03-12T20:51:13.384Z,9.60
2019-03-12T20:53:54.357Z,9.50
2019-03-12T20:56:35.368Z,9.60
2019-03-12T20:59:16.067Z,9.60
2019-03-12T21:01:56.920Z,9.60
2019-03-12T21:05:04.117Z,9.60
2019-03-12T21:07:44.618Z,9.70
2019-03-12T21:10:25.173Z,9.80
2019-03-12T21:13:05.867Z,9.90
2019-03-12T21:15:49.767Z,9.90
2019-03-12T21:18:31.236Z,9.90
2019-03-12T21:21:11.728Z,9.90
2019-03-12T21:23:52.491Z,10.00
2019-03-12T21:26:33.361Z,10.00
2019-03-12T21:29:14.680Z,10.00
2019-03-12T21:31:55.525Z,10.00
2019-03-12T21:34:36.791Z,9.90
2019-03-12T21:37:18.249Z,9.90
2019-03-12T21:39:59.487Z,9.90
2019-03-12T21:42:40.382Z,9.90
2019-03-12T21:45:21.657Z,9.90
2019-03-12T21:48:02.492Z,9.80
2019-03-12T21:52:21.988Z,9.80
2019-03-12T21:55:02.431Z,9.90
2019-03-12T21:57:43.160Z,9.80
2019-03-12T22:00:23.773Z,9.80
2019-03-12T22:03:04.396Z,9.80
2019-03-12T22:05:45.373Z,9.70
2019-03-12T22:08:26.376Z,9.70
2019-03-12T22:11:06.983Z,9.70
2019-03-12T22:13:47.341Z,9.70
2019-03-12T22:16:28.729Z,9.70
2019-03-12T22:19:09.409Z,9.60
2019-03-12T22:22:09.165Z,9.70
2019-03-12T22:24:49.652Z,9.70
2019-03-12T22:27:30.533Z,9.70
2019-03-12T22:30:11.324Z,9.70
2019-03-12T22:32:52.092Z,9.70
2019-03-12T22:35:33.162Z,9.70
2019-03-12T22:38:13.868Z,9.80
2019-03-12T22:40:54.406Z,9.80
2019-03-12T22:43:34.934Z,9.80
2019-03-12T22:46:15.444Z,9.80
2019-03-12T22:48:56.013Z,9.70
2019-03-12T22:51:36.805Z,9.70
2019-03-12T22:54:17.754Z,9.70
2019-03-12T22:56:58.136Z,9.80
2019-03-12T22:59:38.749Z,9.70
2019-03-12T23:02:19.784Z,9.70
2019-03-12T23:05:00.332Z,9.60
2019-03-12T23:07:41.685Z,9.70
2019-03-12T23:10:23.612Z,9.70
2019-03-12T23:13:04.160Z,9.80
2019-03-12T23:15:44.921Z,9.90
2019-03-12T23:18:25.600Z,10.00
2019-03-12T23:21:06.401Z,10.00
2019-03-12T23:23:47.157Z,9.80
2019-03-12T23:26:27.649Z,9.60
2019-03-12T23:29:08.275Z,9.50
2019-03-12T23:31:49.129Z,9.40
2019-03-12T23:34:30.080Z,9.30
2019-03-12T23:37:11.091Z,9.20
2019-03-12T23:39:51.760Z,9.20
2019-03-12T23:42:32.496Z,9.00
2019-03-12T23:45:13.357Z,9.00
2019-03-12T23:47:54.556Z,8.90
2019-03-12T23:50:35.332Z,8.90
2019-03-12T23:53:16.378Z,8.80
2019-03-12T23:55:57.561Z,8.80
2019-03-12T23:58:38.220Z,8.80
